createdAt,value
2023-04-12T00:00:11.583Z,96347.56
2023-04-12T00:02:39.734Z,96337.38
2023-04-12T00:05:09.591Z,96341.06
2023-04-12T00:07:38.383Z,96334.16
2023-04-12T00:10:07.953Z,96333.41
2023-04-12T00:12:34.484Z,96325.28
2023-04-12T00:15:01.503Z,96325.84
2023-04-12T00:17:28.056Z,96329.53
2023-04-12T00:19:54.678Z,96324.28
2023-04-12T00:22:21.263Z,96321.47
2023-04-12T00:24:47.841Z,96326.00
2023-04-12T00:27:14.424Z,96325.91
2023-04-12T00:29:41.167Z,96324.47
2023-04-12T00:32:07.732Z,96325.50
2023-04-12T00:34:34.286Z,96323.47
2023-04-12T00:37:02.188Z,96324.66
2023-04-12T00:39:29.058Z,96318.66
2023-04-12T00:41:56.995Z,96307.44
2023-04-12T00:44:24.256Z,96315.50
2023-04-12T00:46:51.512Z,96311.50
2023-04-12T00:49:18.144Z,96310.03
2023-04-12T00:51:45.031Z,96308.31
2023-04-12T00:54:12.082Z,96300.16
2023-04-12T00:56:40.379Z,96298.53
2023-04-12T00:59:07.752Z,96304.34
2023-04-12T01:01:34.580Z,96312.00
2023-04-12T01:04:04.723Z,96300.47
2023-04-12T01:06:40.378Z,96302.03
2023-04-12T01:09:16.291Z,96297.94
2023-04-12T01:11:56.761Z,96297.56
2023-04-12T01:14:51.545Z,96291.94
2023-04-12T01:17:21.753Z,96286.25
2023-04-12T01:19:54.210Z,96280.13
2023-04-12T01:22:33.523Z,96277.41
2023-04-12T01:25:35.611Z,96282.56
2023-04-12T01:28:07.021Z,96285.38
2023-04-12T01:30:34.430Z,96284.09
2023-04-12T01:33:03.489Z,96283.81
2023-04-12T01:35:33.970Z,96281.00
2023-04-12T01:38:03.138Z,96277.41
2023-04-12T01:40:31.428Z,96271.41
2023-04-12T01:43:08.121Z,96279.75
2023-04-12T01:45:35.041Z,96290.00
2023-04-12T01:48:02.642Z,96287.69
2023-04-12T01:51:05.320Z,96289.63
2023-04-12T01:53:43.604Z,96285.16
2023-04-12T01:56:11.769Z,96290.41
2023-04-12T01:58:40.329Z,96289.63
2023-04-12T02:01:08.377Z,96290.59
2023-04-12T02:03:37.593Z,96284.97
2023-04-12T02:06:05.805Z,96275.56
2023-04-12T02:08:33.195Z,96272.78
2023-04-12T02:10:59.612Z,96280.34
2023-04-12T02:13:26.756Z,96277.25
2023-04-12T02:15:54.878Z,96275.09
2023-04-12T02:18:21.787Z,96270.63
2023-04-12T02:20:50.076Z,96265.09
2023-04-12T02:23:16.633Z,96261.91
2023-04-12T02:25:44.147Z,96269.47
2023-04-12T02:28:10.659Z,96267.63
2023-04-12T02:30:38.451Z,96252.78
2023-04-12T02:33:06.265Z,96265.78
2023-04-12T02:35:32.965Z,96267.09
2023-04-12T02:37:59.507Z,96266.59
2023-04-12T02:40:26.112Z,96266.47
2023-04-12T02:42:52.675Z,96265.06
2023-04-12T02:45:19.202Z,96269.19
2023-04-12T02:47:45.918Z,96263.00
2023-04-12T02:50:12.759Z,96259.59
2023-04-12T02:52:39.299Z,96264.53
2023-04-12T02:55:06.757Z,96266.16
2023-04-12T02:57:33.265Z,96261.50
2023-04-12T02:59:59.803Z,96265.56
2023-04-12T03:02:26.685Z,96262.63
2023-04-12T03:04:54.851Z,96271.81
2023-04-12T03:07:22.694Z,96272.53
2023-04-12T03:09:50.594Z,96268.94
2023-04-12T03:12:17.532Z,96263.03
2023-04-12T03:14:44.061Z,96259.94
2023-04-12T03:17:11.028Z,96251.81
2023-04-12T03:19:37.694Z,96254.63
2023-04-12T03:22:04.754Z,96257.28
2023-04-12T03:24:34.249Z,96252.41
2023-04-12T03:27:04.766Z,96258.03
2023-04-12T03:29:32.400Z,96252.78
2023-04-12T03:31:59.705Z,96234.66
2023-04-12T03:34:33.132Z,96250.63
2023-04-12T03:37:01.516Z,96254.22
2023-04-12T03:39:28.700Z,96253.44
2023-04-12T03:41:55.290Z,96256.25
2023-04-12T03:44:22.609Z,96251.22
2023-04-12T03:46:49.520Z,96252.59
2023-04-12T03:49:16.762Z,96250.28
2023-04-12T03:51:43.875Z,96257.56
2023-04-12T03:54:15.716Z,96267.72
2023-04-12T03:56:43.230Z,96268.31
2023-04-12T03:59:11.537Z,96269.84
2023-04-12T04:01:38.903Z,96268.94
2023-04-12T04:04:06.647Z,96271.16
2023-04-12T04:06:34.336Z,96283.63
2023-04-12T04:09:01.439Z,96278.50
2023-04-12T04:11:28.046Z,96288.34
2023-04-12T04:13:54.844Z,96290.19
2023-04-12T04:16:21.770Z,96295.00
2023-04-12T04:18:48.624Z,96288.34
2023-04-12T04:21:15.283Z,96289.09
2023-04-12T04:23:45.016Z,96298.78
2023-04-12T04:26:12.125Z,96298.28
2023-04-12T04:28:39.337Z,96294.84
2023-04-12T04:31:06.518Z,96301.69
2023-04-12T04:33:33.769Z,96281.97
2023-04-12T04:36:00.995Z,96297.28
2023-04-12T04:38:28.348Z,96291.69
2023-04-12T04:40:55.574Z,96295.22
2023-04-12T04:43:22.144Z,96303.91
2023-04-12T04:45:54.766Z,96307.50
2023-04-12T04:48:21.555Z,96312.75
2023-04-12T04:50:48.244Z,96315.94
2023-04-12T04:53:18.671Z,96310.47
2023-04-12T04:55:45.355Z,96310.13
2023-04-12T04:58:12.562Z,96315.78
2023-04-12T05:00:39.118Z,96324.16
2023-04-12T05:03:05.884Z,96328.03
2023-04-12T05:05:32.683Z,96324.69
2023-04-12T05:07:59.201Z,96330.03
2023-04-12T05:10:25.851Z,96339.16
2023-04-12T05:12:52.451Z,96332.41
2023-04-12T05:15:19.816Z,96323.88
2023-04-12T05:17:46.457Z,96332.13
2023-04-12T05:20:13.102Z,96336.50
2023-04-12T05:22:39.742Z,96333.00
2023-04-12T05:25:06.780Z,96325.84
2023-04-12T05:27:33.324Z,96322.19
2023-04-12T05:30:00.247Z,96326.75
2023-04-12T05:32:27.091Z,96319.69
2023-04-12T05:34:53.638Z,96325.19
2023-04-12T05:37:20.210Z,96336.44
2023-04-12T05:39:46.790Z,96328.59
2023-04-12T05:42:13.320Z,96331.09
2023-04-12T05:44:39.947Z,96339.00
2023-04-12T05:47:06.528Z,96329.31
2023-04-12T05:49:33.161Z,96329.94
2023-04-12T05:51:59.747Z,96327.13
2023-04-12T05:54:26.328Z,96330.81
2023-04-12T05:56:55.724Z,96321.78
2023-04-12T05:59:22.747Z,96325.75
2023-04-12T06:01:49.923Z,96335.81
2023-04-12T06:04:16.788Z,96328.16
2023-04-12T06:06:43.692Z,96317.59
2023-04-12T06:09:11.173Z,96326.03
2023-04-12T06:11:39.213Z,96331.09
2023-04-12T06:14:06.449Z,96332.72
2023-04-12T06:16:33.261Z,96338.72
2023-04-12T06:19:00.236Z,96333.09
2023-04-12T06:21:27.152Z,96336.09
2023-04-12T06:23:53.717Z,96341.25
2023-04-12T06:26:20.888Z,96342.78
2023-04-12T06:28:47.463Z,96316.91
2023-04-12T06:31:16.960Z,96322.25
2023-04-12T06:33:43.764Z,96318.78
2023-04-12T06:36:11.593Z,96324.09
2023-04-12T06:38:39.357Z,96330.72
2023-04-12T06:41:06.680Z,96343.91
2023-04-12T06:43:33.339Z,96332.06
2023-04-12T06:46:02.884Z,96335.28
2023-04-12T06:48:30.057Z,96334.16
2023-04-12T06:50:56.629Z,96337.94
2023-04-12T06:53:23.132Z,96336.22
2023-04-12T06:55:49.709Z,96357.47
2023-04-12T06:58:16.298Z,96345.00
2023-04-12T07:00:42.853Z,96338.34
2023-04-12T07:03:10.220Z,96336.69
2023-04-12T07:05:39.982Z,96349.88
2023-04-12T07:08:08.433Z,96340.75
2023-04-12T07:10:36.228Z,96352.56
2023-04-12T07:13:07.088Z,96336.25
2023-04-12T07:15:33.790Z,96330.22
2023-04-12T07:18:00.329Z,96335.47
2023-04-12T07:20:27.114Z,96336.88
2023-04-12T07:22:53.759Z,96347.56
2023-04-12T07:25:20.291Z,96347.84
2023-04-12T07:27:46.935Z,96338.72
2023-04-12T07:30:13.710Z,96350.81
2023-04-12T07:32:40.529Z,96351.13
2023-04-12T07:35:07.640Z,96350.41
2023-04-12T07:37:34.225Z,96348.47
2023-04-12T07:40:00.825Z,96348.97
2023-04-12T07:42:27.530Z,96342.78
2023-04-12T07:44:54.141Z,96347.00
2023-04-12T07:47:20.721Z,96356.00
2023-04-12T07:49:47.258Z,96364.16
2023-04-12T07:52:13.837Z,96355.03
2023-04-12T07:54:40.394Z,96356.28
2023-04-12T07:57:08.881Z,96364.22
2023-04-12T07:59:36.711Z,96362.59
2023-04-12T08:02:03.566Z,96370.75
2023-04-12T08:04:30.225Z,96377.38
2023-04-12T08:06:56.821Z,96364.56
2023-04-12T08:09:24.529Z,96372.22
2023-04-12T08:11:51.227Z,96360.13
2023-04-12T08:14:17.804Z,96363.59
2023-04-12T08:16:44.433Z,96352.69
2023-04-12T08:19:11.883Z,96346.88
2023-04-12T08:21:38.422Z,96355.75
2023-04-12T08:24:05.270Z,96354.38
2023-04-12T08:26:31.912Z,96354.28
2023-04-12T08:28:58.589Z,96352.66
2023-04-12T08:31:25.297Z,96345.75
2023-04-12T08:33:51.921Z,96348.28
2023-04-12T08:36:19.213Z,96359.34
2023-04-12T08:38:46.657Z,96348.78
2023-04-12T08:41:14.580Z,96349.56
2023-04-12T08:43:45.622Z,96363.50
2023-04-12T08:46:15.735Z,96360.13
2023-04-12T08:48:47.040Z,96356.31
2023-04-12T08:51:15.770Z,96360.94
2023-04-12T08:53:42.367Z,96366.09
2023-04-12T08:56:13.757Z,96369.88
2023-04-12T08:58:42.202Z,96372.28
2023-04-12T09:01:15.616Z,96376.44
2023-04-12T09:03:43.928Z,96361.31
2023-04-12T09:06:11.617Z,96364.66
2023-04-12T09:08:50.678Z,96358.56
2023-04-12T09:11:25.046Z,96321.50
2023-04-12T09:13:52.087Z,96336.53
2023-04-12T09:16:20.387Z,96331.66
2023-04-12T09:18:51.289Z,96316.34
2023-04-12T09:21:18.634Z,96307.94
2023-04-12T09:23:45.376Z,96300.28
2023-04-12T09:26:31.605Z,96286.50
2023-04-12T09:28:58.207Z,96269.88
2023-04-12T09:31:24.831Z,96269.66
2023-04-12T09:33:51.746Z,96263.75
2023-04-12T09:36:19.186Z,96262.44
2023-04-12T09:39:05.282Z,96265.75
2023-04-12T09:41:33.020Z,96256.75
2023-04-12T09:44:00.515Z,96264.28
2023-04-12T09:46:27.665Z,96259.38
2023-04-12T09:48:59.013Z,96240.44
2023-04-12T09:51:36.467Z,96229.97
2023-04-12T09:54:05.660Z,96230.22
2023-04-12T09:56:35.872Z,96225.81
2023-04-12T09:59:09.774Z,96213.16
2023-04-12T10:01:39.657Z,96208.50
2023-04-12T10:04:08.404Z,96188.31
2023-04-12T10:06:37.220Z,96180.06
2023-04-12T10:09:05.073Z,96161.09
2023-04-12T10:11:32.215Z,96165.59
2023-04-12T10:13:59.611Z,96148.00
2023-04-12T10:16:27.251Z,96160.41
2023-04-12T10:18:54.806Z,96160.66
2023-04-12T10:21:21.622Z,96153.63
2023-04-12T10:23:49.253Z,96155.47
2023-04-12T10:26:17.070Z,96149.63
2023-04-12T10:28:47.836Z,96140.28
2023-04-12T10:31:30.815Z,96151.78
2023-04-12T10:33:57.617Z,96166.38
2023-04-12T10:36:56.493Z,96163.25
2023-04-12T10:39:40.801Z,96147.06
2023-04-12T10:42:20.575Z,96159.09
2023-04-12T10:44:47.842Z,96136.13
2023-04-12T10:47:14.664Z,96157.78
2023-04-12T10:49:41.426Z,96187.28
2023-04-12T10:52:12.515Z,96170.38
2023-04-12T10:54:39.367Z,96165.50
2023-04-12T10:57:06.782Z,96178.28
2023-04-12T10:59:52.783Z,96162.91
2023-04-12T11:02:19.486Z,96165.06
2023-04-12T11:05:05.405Z,96179.31
2023-04-12T11:07:43.161Z,96185.75
2023-04-12T11:10:17.309Z,96186.47
2023-04-12T11:12:50.974Z,96167.59
2023-04-12T11:15:18.267Z,96168.19
2023-04-12T11:17:54.392Z,96159.38
2023-04-12T11:20:21.367Z,96163.69
2023-04-12T11:22:49.989Z,96153.00
2023-04-12T11:25:18.042Z,96149.00
2023-04-12T11:27:52.090Z,96133.56
2023-04-12T11:30:19.995Z,96126.75
2023-04-12T11:32:47.359Z,96133.81
2023-04-12T11:35:17.053Z,96130.56
2023-04-12T11:37:44.274Z,96121.94
2023-04-12T11:40:11.321Z,96133.06
2023-04-12T11:42:40.065Z,96126.91
2023-04-12T11:45:14.260Z,96127.22
2023-04-12T11:47:46.145Z,96119.47
2023-04-12T11:50:12.987Z,96130.94
2023-04-12T11:52:41.225Z,96103.97
2023-04-12T11:55:11.004Z,96113.78
2023-04-12T11:57:39.048Z,96108.34
2023-04-12T12:00:07.022Z,96113.34
2023-04-12T12:02:41.284Z,96111.31
2023-04-12T12:05:13.284Z,96110.06
2023-04-12T12:07:40.190Z,96112.88
2023-04-12T12:10:07.523Z,96110.69
2023-04-12T12:12:33.945Z,96111.69
2023-04-12T12:15:02.239Z,96147.22
2023-04-12T12:17:29.095Z,96165.44
2023-04-12T12:19:58.348Z,96158.72
2023-04-12T12:22:24.892Z,96149.75
2023-04-12T12:24:55.691Z,96157.25
2023-04-12T12:27:33.916Z,96136.28
2023-04-12T12:30:02.410Z,96161.94
2023-04-12T12:32:37.142Z,96148.16
2023-04-12T12:35:09.552Z,96145.22
2023-04-12T12:37:36.313Z,96152.63
2023-04-12T12:40:23.998Z,96150.00
2023-04-12T12:42:55.486Z,96153.31
2023-04-12T12:45:24.283Z,96147.81
2023-04-12T12:47:53.479Z,96141.09
2023-04-12T12:50:24.765Z,96147.75
2023-04-12T12:52:52.354Z,96136.63
2023-04-12T12:55:21.173Z,96133.31
2023-04-12T12:58:02.231Z,96127.47
2023-04-12T13:00:33.811Z,96157.56
2023-04-12T13:03:00.900Z,96137.78
2023-04-12T13:05:27.776Z,96127.63
2023-04-12T13:07:54.420Z,96134.84
2023-04-12T13:10:21.125Z,96110.38
2023-04-12T13:12:47.700Z,96128.81
2023-04-12T13:17:43.891Z,96137.31
2023-04-12T13:20:10.990Z,96116.66
2023-04-12T13:22:37.553Z,96121.13
2023-04-12T13:25:04.392Z,96126.72
2023-04-12T13:27:30.969Z,96122.72
2023-04-12T13:29:57.596Z,96114.16
2023-04-12T13:32:24.135Z,96121.03
2023-04-12T13:34:50.907Z,96112.03
2023-04-12T13:37:17.442Z,96116.31
2023-04-12T13:39:44.905Z,96122.03
2023-04-12T13:42:11.801Z,96110.72
2023-04-12T13:44:38.433Z,96123.59
2023-04-12T13:47:05.045Z,96124.25
2023-04-12T13:49:31.661Z,96141.28
2023-04-12T13:51:58.200Z,96120.28
2023-04-12T13:54:25.072Z,96117.78
2023-04-12T13:56:51.716Z,96114.69
2023-04-12T13:59:18.456Z,96130.38
2023-04-12T14:01:45.233Z,96128.47
2023-04-12T14:04:11.917Z,96128.88
2023-04-12T14:06:38.836Z,96129.13
2023-04-12T14:09:08.947Z,96132.38
2023-04-12T14:11:47.086Z,96150.72
2023-04-12T14:14:16.574Z,96142.44
2023-04-12T14:16:44.759Z,96137.03
2023-04-12T14:19:11.364Z,96144.69
2023-04-12T14:21:38.288Z,96146.19
2023-04-12T14:24:04.999Z,96145.66
2023-04-12T14:26:32.291Z,96147.34
2023-04-12T14:28:59.189Z,96156.63
2023-04-12T14:31:26.015Z,96162.78
2023-04-12T14:33:53.737Z,96175.25
2023-04-12T14:36:20.352Z,96173.16
2023-04-12T14:38:46.901Z,96186.13
2023-04-12T14:41:14.064Z,96179.03
2023-04-12T14:43:40.967Z,96187.03
2023-04-12T14:46:07.697Z,96173.47
2023-04-12T14:48:34.330Z,96189.41
2023-04-12T14:51:00.941Z,96188.06
2023-04-12T14:53:27.459Z,96196.22
2023-04-12T14:55:54.095Z,96190.13
2023-04-12T14:58:20.642Z,96194.31
2023-04-12T15:00:49.193Z,96201.03
2023-04-12T15:05:43.251Z,96201.84
2023-04-12T15:08:09.772Z,96200.25
2023-04-12T15:10:37.148Z,96200.75
2023-04-12T15:13:03.610Z,96199.44
2023-04-12T15:15:30.165Z,96199.25
2023-04-12T15:17:56.899Z,96186.69
2023-04-12T15:20:23.532Z,96199.78
2023-04-12T15:22:50.113Z,96200.84
2023-04-12T15:25:16.648Z,96204.44
2023-04-12T15:27:44.242Z,96212.94
2023-04-12T15:30:13.028Z,96224.03
2023-04-12T15:32:42.595Z,96220.69
2023-04-12T15:35:25.426Z,96216.56
2023-04-12T15:37:55.053Z,96217.84
2023-04-12T15:40:22.867Z,96216.03
2023-04-12T15:42:49.634Z,96214.72
2023-04-12T15:45:16.276Z,96215.22
2023-04-12T15:47:43.016Z,96219.84
2023-04-12T15:50:10.259Z,96221.63
2023-04-12T15:52:36.955Z,96221.19
2023-04-12T15:55:05.299Z,96236.88
2023-04-12T15:57:32.417Z,96234.31
2023-04-12T15:59:59.905Z,96224.56
2023-04-12T16:02:27.156Z,96225.56
2023-04-12T16:04:56.037Z,96235.38
2023-04-12T16:07:22.741Z,96234.84
2023-04-12T16:09:49.535Z,96243.06
2023-04-12T16:12:16.318Z,96243.34
2023-04-12T16:14:43.116Z,96242.56
2023-04-12T16:17:10.047Z,96238.97
2023-04-12T16:19:36.797Z,96241.25
2023-04-12T16:22:03.950Z,96251.03
2023-04-12T16:24:31.957Z,96256.16
2023-04-12T16:26:59.262Z,96257.72
2023-04-12T16:29:25.873Z,96252.06
2023-04-12T16:31:52.822Z,96257.91
2023-04-12T16:34:21.937Z,96263.56
2023-04-12T16:36:49.043Z,96266.91
2023-04-12T16:39:16.562Z,96262.03
2023-04-12T16:41:43.955Z,96271.28
2023-04-12T16:44:10.759Z,96278.97
2023-04-12T16:46:37.770Z,96279.19
2023-04-12T16:49:04.869Z,96278.41
2023-04-12T16:51:36.781Z,96286.09
2023-04-12T16:54:04.160Z,96284.00
2023-04-12T16:56:30.705Z,96290.69
2023-04-12T16:58:59.045Z,96295.75
2023-04-12T17:01:25.718Z,96292.66
2023-04-12T17:03:52.413Z,96308.81
2023-04-12T17:06:19.549Z,96310.06
2023-04-12T17:08:46.745Z,96317.22
2023-04-12T17:11:13.618Z,96314.84
2023-04-12T17:13:40.255Z,96324.63
2023-04-12T17:16:07.756Z,96323.78
2023-04-12T17:18:34.838Z,96331.97
2023-04-12T17:21:01.523Z,96337.09
2023-04-12T17:23:28.357Z,96343.69
2023-04-12T17:25:56.130Z,96352.94
2023-04-12T17:28:22.667Z,96352.59
2023-04-12T17:30:49.182Z,96364.66
2023-04-12T17:33:18.095Z,96379.72
2023-04-12T17:35:45.152Z,96371.94
2023-04-12T17:38:11.685Z,96386.22
2023-04-12T17:40:38.460Z,96389.47
2023-04-12T17:43:05.342Z,96392.44
2023-04-12T17:45:33.688Z,96389.81
2023-04-12T17:48:00.452Z,96397.44
2023-04-12T17:50:27.267Z,96393.56
2023-04-12T17:52:55.503Z,96402.41
2023-04-12T17:55:26.043Z,96390.22
2023-04-12T17:57:56.066Z,96395.50
2023-04-12T18:00:24.072Z,96387.19
2023-04-12T18:02:51.014Z,96392.03
2023-04-12T18:05:18.401Z,96412.03
2023-04-12T18:07:45.084Z,96412.22
2023-04-12T18:10:15.430Z,96416.69
2023-04-12T18:12:44.213Z,96413.50
2023-04-12T18:15:11.401Z,96417.78
2023-04-12T18:17:39.729Z,96424.59
2023-04-12T18:20:10.574Z,96427.56
2023-04-12T18:22:38.204Z,96428.47
2023-04-12T18:25:08.960Z,96431.38
2023-04-12T18:27:35.810Z,96424.13
2023-04-12T18:30:03.363Z,96431.03
2023-04-12T18:32:30.006Z,96424.50
2023-04-12T18:34:56.636Z,96422.97
2023-04-12T18:37:23.191Z,96423.94
2023-04-12T18:39:53.057Z,96422.50
2023-04-12T18:42:20.062Z,96421.06
2023-04-12T18:44:46.722Z,96436.78
2023-04-12T18:47:13.258Z,96440.19
2023-04-12T18:49:39.773Z,96445.31
2023-04-12T18:52:07.053Z,96453.75
2023-04-12T18:54:33.556Z,96456.94
2023-04-12T18:57:01.932Z,96456.34
2023-04-12T18:59:28.699Z,96453.63
2023-04-12T19:01:55.550Z,96459.06
2023-04-12T19:04:22.296Z,96457.69
2023-04-12T19:06:48.900Z,96463.19
2023-04-12T19:09:15.739Z,96466.06
2023-04-12T19:11:42.279Z,96468.28
2023-04-12T19:14:08.852Z,96468.28
2023-04-12T19:16:36.166Z,96472.00
2023-04-12T19:19:02.756Z,96476.28
2023-04-12T19:21:29.443Z,96475.47
2023-04-12T19:23:56.694Z,96474.84
2023-04-12T19:26:23.654Z,96473.31
2023-04-12T19:28:55.645Z,96479.16
2023-04-12T19:31:23.654Z,96476.25
2023-04-12T19:33:50.477Z,96483.50
2023-04-12T19:36:17.297Z,96484.81
2023-04-12T19:38:44.724Z,96483.72
2023-04-12T19:41:11.312Z,96475.31
2023-04-12T19:43:37.905Z,96468.94
2023-04-12T19:46:04.750Z,96474.72
2023-04-12T19:48:32.608Z,96475.22
2023-04-12T19:50:59.169Z,96468.38
2023-04-12T19:53:25.957Z,96481.16
2023-04-12T19:55:57.157Z,96479.63
2023-04-12T19:58:24.872Z,96465.03
2023-04-12T20:00:52.410Z,96478.06
2023-04-12T20:03:19.084Z,96483.06
2023-04-12T20:05:46.173Z,96480.72
2023-04-12T20:08:12.743Z,96478.09
2023-04-12T20:10:39.405Z,96464.53
2023-04-12T20:13:09.778Z,96474.34
2023-04-12T20:15:39.008Z,96475.91
2023-04-12T20:18:06.780Z,96479.31
2023-04-12T20:20:33.434Z,96490.53
2023-04-12T20:22:59.972Z,96484.31
2023-04-12T20:25:27.262Z,96480.56
2023-04-12T20:27:54.023Z,96486.47
2023-04-12T20:30:21.238Z,96485.06
2023-04-12T20:32:54.100Z,96469.03
2023-04-12T20:35:21.501Z,96464.72
2023-04-12T20:37:50.443Z,96475.25
2023-04-12T20:40:17.890Z,96474.63
2023-04-12T20:42:45.248Z,96470.44
2023-04-12T20:45:12.316Z,96467.78
2023-04-12T20:47:38.910Z,96491.44
2023-04-12T20:50:06.091Z,96486.78
2023-04-12T20:52:32.763Z,96488.63
2023-04-12T20:54:59.440Z,96496.69
2023-04-12T20:57:27.569Z,96494.22
2023-04-12T20:59:55.441Z,96494.22
2023-04-12T21:02:31.110Z,96494.66
2023-04-12T21:04:59.462Z,96497.09
2023-04-12T21:07:26.230Z,96499.59
2023-04-12T21:09:52.905Z,96495.53
2023-04-12T21:12:19.824Z,96501.56
2023-04-12T21:14:50.370Z,96487.13
2023-04-12T21:17:17.100Z,96481.34
2023-04-12T21:19:44.946Z,96492.78
2023-04-12T21:22:11.458Z,96496.97
2023-04-12T21:24:40.567Z,96485.56
2023-04-12T21:27:08.515Z,96483.41
2023-04-12T21:29:41.338Z,96496.38
2023-04-12T21:32:09.189Z,96483.91
2023-04-12T21:34:35.879Z,96485.97
2023-04-12T21:37:04.211Z,96473.38
2023-04-12T21:39:31.606Z,96474.28
2023-04-12T21:41:58.406Z,96491.06
2023-04-12T21:44:25.640Z,96462.22
2023-04-12T21:46:52.617Z,96480.91
2023-04-12T21:49:19.221Z,96483.25
2023-04-12T21:51:49.344Z,96487.78
2023-04-12T21:54:16.441Z,96483.59
2023-04-12T21:56:43.120Z,96482.09
2023-04-12T21:59:09.677Z,96489.69
2023-04-12T22:01:37.370Z,96488.69
2023-04-12T22:04:04.507Z,96496.19
2023-04-12T22:06:31.235Z,96492.13
2023-04-12T22:09:02.500Z,96492.75
2023-04-12T22:11:30.438Z,96491.31
2023-04-12T22:13:57.805Z,96492.75
2023-04-12T22:16:24.712Z,96487.41
2023-04-12T22:18:51.481Z,96490.38
2023-04-12T22:21:18.053Z,96495.41
2023-04-12T22:23:45.685Z,96491.25
2023-04-12T22:26:12.624Z,96499.97
2023-04-12T22:28:39.370Z,96497.72
2023-04-12T22:31:08.134Z,96504.69
2023-04-12T22:33:36.879Z,96506.47
2023-04-12T22:36:06.075Z,96501.00
2023-04-12T22:38:38.161Z,96510.25
2023-04-12T22:41:05.016Z,96502.47
2023-04-12T22:43:42.117Z,96501.16
2023-04-12T22:46:16.061Z,96500.72
2023-04-12T22:48:48.455Z,96502.63
2023-04-12T22:51:15.483Z,96502.06
2023-04-12T22:53:43.407Z,96499.84
2023-04-12T22:56:11.182Z,96512.78
2023-04-12T22:58:40.089Z,96505.06
2023-04-12T23:01:07.201Z,96504.75
2023-04-12T23:03:33.829Z,96506.19
2023-04-12T23:06:00.460Z,96514.69
2023-04-12T23:08:28.985Z,96518.00
2023-04-12T23:11:02.194Z,96523.59
2023-04-12T23:13:35.646Z,96522.59
2023-04-12T23:16:03.568Z,96536.84
2023-04-12T23:18:30.370Z,96536.06
2023-04-12T23:20:56.971Z,96539.31
2023-04-12T23:23:26.310Z,96531.16
2023-04-12T23:25:52.976Z,96539.75
2023-04-12T23:28:21.768Z,96535.03
2023-04-12T23:30:50.223Z,96539.41
2023-04-12T23:33:18.609Z,96535.94
2023-04-12T23:35:47.317Z,96542.38
2023-04-12T23:38:23.128Z,96543.06
2023-04-12T23:40:56.556Z,96542.63
2023-04-12T23:43:24.425Z,96541.06
2023-04-12T23:45:54.686Z,96538.41
2023-04-12T23:48:21.962Z,96539.47
2023-04-12T23:50:49.134Z,96539.78
2023-04-12T23:53:16.856Z,96545.56
2023-04-12T23:55:47.292Z,96539.59
2023-04-12T23:58:14.142Z,96543.09
